イスタンブル の空港の天気 - METARとTAF

アタテュルク国際空港(イスタンブル) ( LTBA / IST ) - トルコ イスタンブル
飛行場実況気象(Metar)
観測時間10/25 22:20 EET (10/25 19:20 UTC)
風向・風速北北東 2m/s
視程10km以上
天気現象
なし
気温18℃
湿度83%
気圧1012hPa
METARLTBA 251920Z 03003KT 340V070 CAVOK 18/15 Q1012 NOSIG RMK RWY23 01003KT 320V060
過去の天気等 Google飛行場航空写真 Wunderground天気予報

過去48時間のMETAR

飛行場予報(TAF)
発表時間: 10/25 19:40 EET (10/25 16:40 UTC)
予報対象時間: 25日21時 EET ~ 27日3時 EET
風向・風速不定 1m/s
視程10km以上
なし
25日23時 EET ~ 26日2時 EET に徐々に
視程4000m
天気現象もや
全天の4割程度の雲 雲底高度 300m
26日5時 EET ~ 26日9時 EET に一時的に
視程1200m
天気現象散在した霧
26日10時 EET ~ 26日13時 EET に徐々に
視程10km以上
天気現象運行に影響にある天気現象が終了
26日21時 EET ~ 26日24時 EET に徐々に
視程4000m
天気現象もや
TAF LTBA 251640Z 2518/2624 VRB02KT CAVOK
BECMG 2520/2523 4000 BR SCT010
TEMPO 2602/2606 1200 BCFG
BECMG 2607/2610 9999 NSW
BECMG 2618/2621 4000 BR